sensor_id;sensor_type;location;lat;lon;timestamp;pressure;altitude;pressure_sealevel;temperature;humidity
8294;BME280;4185;41.506;24.938;2023-05-20T00:00:00;93807.97;;;10.40;97.90
8294;BME280;4185;41.506;24.938;2023-05-20T00:02:27;93809.22;;;10.39;97.76
8294;BME280;4185;41.506;24.938;2023-05-20T00:04:54;93806.97;;;10.38;97.56
8294;BME280;4185;41.506;24.938;2023-05-20T00:07:21;93808.44;;;10.39;97.44
8294;BME280;4185;41.506;24.938;2023-05-20T00:09:48;93804.78;;;10.42;96.72
8294;BME280;4185;41.506;24.938;2023-05-20T00:12:14;93807.56;;;10.47;95.64
8294;BME280;4185;41.506;24.938;2023-05-20T00:14:41;93802.19;;;10.53;96.25
8294;BME280;4185;41.506;24.938;2023-05-20T00:17:09;93792.09;;;10.53;96.20
8294;BME280;4185;41.506;24.938;2023-05-20T00:19:36;93799.50;;;10.53;96.61
8294;BME280;4185;41.506;24.938;2023-05-20T00:22:03;93805.59;;;10.48;96.88
8294;BME280;4185;41.506;24.938;2023-05-20T00:24:30;93805.31;;;10.46;96.93
8294;BME280;4185;41.506;24.938;2023-05-20T00:26:56;93799.09;;;10.40;97.13
8294;BME280;4185;41.506;24.938;2023-05-20T00:29:23;93797.88;;;10.41;98.14
8294;BME280;4185;41.506;24.938;2023-05-20T00:31:50;93800.84;;;10.43;98.04
8294;BME280;4185;41.506;24.938;2023-05-20T00:34:18;93800.78;;;10.37;97.08
8294;BME280;4185;41.506;24.938;2023-05-20T00:36:45;93798.00;;;10.32;97.75
8294;BME280;4185;41.506;24.938;2023-05-20T00:39:12;93800.19;;;10.28;97.98
8294;BME280;4185;41.506;24.938;2023-05-20T00:41:39;93790.97;;;10.20;98.28
8294;BME280;4185;41.506;24.938;2023-05-20T00:44:05;93788.25;;;10.20;99.08
8294;BME280;4185;41.506;24.938;2023-05-20T00:46:32;93799.72;;;10.29;98.77
8294;BME280;4185;41.506;24.938;2023-05-20T00:48:59;93795.91;;;10.21;97.82
8294;BME280;4185;41.506;24.938;2023-05-20T00:51:28;93792.09;;;10.13;96.80
8294;BME280;4185;41.506;24.938;2023-05-20T00:53:55;93788.00;;;10.03;96.93
8294;BME280;4185;41.506;24.938;2023-05-20T00:56:22;93786.38;;;9.91;97.42
8294;BME280;4185;41.506;24.938;2023-05-20T00:58:49;93790.03;;;9.88;97.98
8294;BME280;4185;41.506;24.938;2023-05-20T01:01:16;93787.78;;;9.86;97.88
8294;BME280;4185;41.506;24.938;2023-05-20T01:03:43;93784.56;;;9.82;98.55
8294;BME280;4185;41.506;24.938;2023-05-20T01:06:09;93786.38;;;9.91;99.24
8294;BME280;4185;41.506;24.938;2023-05-20T01:08:38;93785.75;;;10.02;98.74
8294;BME280;4185;41.506;24.938;2023-05-20T01:11:07;93783.06;;;10.02;98.03
8294;BME280;4185;41.506;24.938;2023-05-20T01:13:38;93784.56;;;10.03;97.20
8294;BME280;4185;41.506;24.938;2023-05-20T01:16:09;93779.34;;;9.99;97.45
8294;BME280;4185;41.506;24.938;2023-05-20T01:18:37;93777.34;;;10.00;97.25
8294;BME280;4185;41.506;24.938;2023-05-20T01:21:06;93773.91;;;9.99;98.18
8294;BME280;4185;41.506;24.938;2023-05-20T01:23:39;93774.91;;;10.02;97.68
8294;BME280;4185;41.506;24.938;2023-05-20T01:26:06;93775.88;;;9.99;97.54
8294;BME280;4185;41.506;24.938;2023-05-20T01:28:33;93789.16;;;9.97;98.37
8294;BME280;4185;41.506;24.938;2023-05-20T01:31:04;93782.66;;;9.88;97.91
8294;BME280;4185;41.506;24.938;2023-05-20T01:33:34;93785.63;;;9.91;97.98
8294;BME280;4185;41.506;24.938;2023-05-20T01:36:01;93780.88;;;9.85;97.24
8294;BME280;4185;41.506;24.938;2023-05-20T01:38:29;93776.41;;;9.82;97.68
8294;BME280;4185;41.506;24.938;2023-05-20T01:40:58;93776.53;;;9.73;96.69
8294;BME280;4185;41.506;24.938;2023-05-20T01:43:27;93775.63;;;9.62;96.97
8294;BME280;4185;41.506;24.938;2023-05-20T01:45:54;93771.34;;;9.55;96.94
8294;BME280;4185;41.506;24.938;2023-05-20T01:48:21;93771.19;;;9.44;96.71
8294;BME280;4185;41.506;24.938;2023-05-20T01:50:47;93761.00;;;9.39;98.10
8294;BME280;4185;41.506;24.938;2023-05-20T01:53:14;93764.00;;;9.41;98.48
8294;BME280;4185;41.506;24.938;2023-05-20T01:55:41;93755.47;;;9.48;98.70
8294;BME280;4185;41.506;24.938;2023-05-20T01:58:09;93759.19;;;9.51;99.28
8294;BME280;4185;41.506;24.938;2023-05-20T02:00:36;93759.09;;;9.45;98.46
8294;BME280;4185;41.506;24.938;2023-05-20T02:03:03;93758.19;;;9.48;99.08
8294;BME280;4185;41.506;24.938;2023-05-20T02:05:29;93758.84;;;9.43;99.54
8294;BME280;4185;41.506;24.938;2023-05-20T02:07:56;93756.63;;;9.42;99.56
8294;BME280;4185;41.506;24.938;2023-05-20T02:10:23;93754.34;;;9.40;99.36
8294;BME280;4185;41.506;24.938;2023-05-20T02:12:49;93755.66;;;9.45;99.83
8294;BME280;4185;41.506;24.938;2023-05-20T02:15:17;93755.47;;;9.48;99.04
8294;BME280;4185;41.506;24.938;2023-05-20T02:17:45;93762.78;;;9.42;99.18
8294;BME280;4185;41.506;24.938;2023-05-20T02:20:12;93765.19;;;9.40;99.85
8294;BME280;4185;41.506;24.938;2023-05-20T02:22:39;93768.94;;;9.43;99.72
8294;BME280;4185;41.506;24.938;2023-05-20T02:25:06;93773.06;;;9.38;100.00
8294;BME280;4185;41.506;24.938;2023-05-20T02:27:33;93769.53;;;9.32;100.00
8294;BME280;4185;41.506;24.938;2023-05-20T02:30:00;93774.94;;;9.32;99.43
8294;BME280;4185;41.506;24.938;2023-05-20T02:32:28;93777.13;;;9.28;99.49
8294;BME280;4185;41.506;24.938;2023-05-20T02:34:55;93773.28;;;9.20;98.97
8294;BME280;4185;41.506;24.938;2023-05-20T02:37:22;93770.50;;;9.15;98.61
8294;BME280;4185;41.506;24.938;2023-05-20T02:39:49;93762.81;;;9.13;99.42
8294;BME280;4185;41.506;24.938;2023-05-20T02:42:15;93772.56;;;9.20;99.14
8294;BME280;4185;41.506;24.938;2023-05-20T02:44:42;93767.84;;;9.20;98.05
8294;BME280;4185;41.506;24.938;2023-05-20T02:47:09;93773.28;;;9.20;98.72
8294;BME280;4185;41.506;24.938;2023-05-20T02:49:37;93771.59;;;9.23;98.95
8294;BME280;4185;41.506;24.938;2023-05-20T02:52:04;93779.81;;;9.28;98.41
8294;BME280;4185;41.506;24.938;2023-05-20T02:54:31;93777.94;;;9.34;97.79
8294;BME280;4185;41.506;24.938;2023-05-20T02:56:58;93773.19;;;9.29;97.81
8294;BME280;4185;41.506;24.938;2023-05-20T02:59:26;93766.47;;;9.25;97.77
8294;BME280;4185;41.506;24.938;2023-05-20T03:01:53;93780.75;;;9.25;98.17
8294;BME280;4185;41.506;24.938;2023-05-20T03:04:19;93784.13;;;9.20;97.44
8294;BME280;4185;41.506;24.938;2023-05-20T03:06:48;93783.09;;;9.18;98.27
8294;BME280;4185;41.506;24.938;2023-05-20T03:09:16;93776.09;;;9.11;99.06
8294;BME280;4185;41.506;24.938;2023-05-20T03:11:43;93777.59;;;9.12;99.29
8294;BME280;4185;41.506;24.938;2023-05-20T03:14:10;93774.59;;;9.10;99.14
8294;BME280;4185;41.506;24.938;2023-05-20T03:16:37;93775.53;;;9.07;99.48
8294;BME280;4185;41.506;24.938;2023-05-20T03:19:04;93779.19;;;9.04;100.00
8294;BME280;4185;41.506;24.938;2023-05-20T03:21:30;93781.53;;;8.97;99.84
8294;BME280;4185;41.506;24.938;2023-05-20T03:23:59;93776.84;;;8.97;99.43
8294;BME280;4185;41.506;24.938;2023-05-20T03:26:26;93783.13;;;8.89;99.42
8294;BME280;4185;41.506;24.938;2023-05-20T03:28:53;93771.00;;;8.84;99.00
8294;BME280;4185;41.506;24.938;2023-05-20T03:31:19;93775.91;;;8.71;98.25
8294;BME280;4185;41.506;24.938;2023-05-20T03:33:46;93770.03;;;8.58;99.50
8294;BME280;4185;41.506;24.938;2023-05-20T03:36:13;93777.22;;;8.61;100.00
8294;BME280;4185;41.506;24.938;2023-05-20T03:38:40;93781.72;;;8.64;100.00
8294;BME280;4185;41.506;24.938;2023-05-20T03:41:08;93781.72;;;8.64;100.00
8294;BME280;4185;41.506;24.938;2023-05-20T03:43:35;93777.97;;;8.61;100.00
8294;BME280;4185;41.506;24.938;2023-05-20T03:46:01;93782.75;;;8.67;100.00
8294;BME280;4185;41.506;24.938;2023-05-20T03:48:28;93776.66;;;8.72;100.00
8294;BME280;4185;41.506;24.938;2023-05-20T03:50:55;93774.91;;;8.83;100.00
8294;BME280;4185;41.506;24.938;2023-05-20T03:53:21;93791.44;;;8.85;100.00
8294;BME280;4185;41.506;24.938;2023-05-20T03:55:48;93788.44;;;8.83;100.00
8294;BME280;4185;41.506;24.938;2023-05-20T03:58:16;93802.56;;;8.87;100.00
8294;BME280;4185;41.506;24.938;2023-05-20T04:00:45;93795.91;;;8.88;99.96
8294;BME280;4185;41.506;24.938;2023-05-20T04:03:12;93801.31;;;8.88;99.87
8294;BME280;4185;41.506;24.938;2023-05-20T04:05:39;93800.19;;;8.95;99.97
8294;BME280;4185;41.506;24.938;2023-05-20T04:08:06;93807.22;;;9.01;99.52
8294;BME280;4185;41.506;24.938;2023-05-20T04:10:34;93801.81;;;9.01;98.78
8294;BME280;4185;41.506;24.938;2023-05-20T04:13:01;93809.19;;;9.01;99.13
8294;BME280;4185;41.506;24.938;2023-05-20T04:15:29;93803.59;;;9.04;98.37
8294;BME280;4185;41.506;24.938;2023-05-20T04:17:56;93803.59;;;9.04;98.79
8294;BME280;4185;41.506;24.938;2023-05-20T04:20:22;93808.06;;;9.07;99.24
8294;BME280;4185;41.506;24.938;2023-05-20T04:22:49;93807.88;;;9.11;98.68
8294;BME280;4185;41.506;24.938;2023-05-20T04:25:16;93803.75;;;9.15;99.02
8294;BME280;4185;41.506;24.938;2023-05-20T04:27:43;93800.38;;;9.20;98.17
8294;BME280;4185;41.506;24.938;2023-05-20T04:30:11;93794.03;;;9.23;98.70
8294;BME280;4185;41.506;24.938;2023-05-20T04:32:39;93797.00;;;9.25;97.78
8294;BME280;4185;41.506;24.938;2023-05-20T04:35:07;93789.81;;;9.22;98.12
8294;BME280;4185;41.506;24.938;2023-05-20T04:37:36;93794.97;;;9.20;98.60
8294;BME280;4185;41.506;24.938;2023-05-20T04:40:03;93790.66;;;9.28;98.63
8294;BME280;4185;41.506;24.938;2023-05-20T04:42:33;93788.78;;;9.34;97.98
8294;BME280;4185;41.506;24.938;2023-05-20T04:45:00;93784.75;;;9.44;98.23
8294;BME280;4185;41.506;24.938;2023-05-20T04:47:30;93784.44;;;9.57;97.51
8294;BME280;4185;41.506;24.938;2023-05-20T04:50:05;93790.75;;;9.68;97.19
8294;BME280;4185;41.506;24.938;2023-05-20T04:52:33;93790.38;;;9.75;95.98
8294;BME280;4185;41.506;24.938;2023-05-20T04:55:00;93789.31;;;9.88;96.20
8294;BME280;4185;41.506;24.938;2023-05-20T04:57:27;93782.78;;;10.00;96.95
8294;BME280;4185;41.506;24.938;2023-05-20T04:59:54;93791.91;;;10.17;94.87
8294;BME280;4185;41.506;24.938;2023-05-20T05:02:23;93789.41;;;10.33;93.95
8294;BME280;4185;41.506;24.938;2023-05-20T05:04:50;93781.56;;;10.41;93.49
8294;BME280;4185;41.506;24.938;2023-05-20T05:07:18;93789.03;;;10.46;93.28
8294;BME280;4185;41.506;24.938;2023-05-20T05:09:45;93788.97;;;10.40;93.58
8294;BME280;4185;41.506;24.938;2023-05-20T05:12:11;93792.38;;;10.35;95.28
8294;BME280;4185;41.506;24.938;2023-05-20T05:14:38;93797.31;;;10.37;96.15
8294;BME280;4185;41.506;24.938;2023-05-20T05:17:05;93788.28;;;10.45;95.38
8294;BME280;4185;41.506;24.938;2023-05-20T05:19:32;93791.97;;;10.42;96.36
8294;BME280;4185;41.506;24.938;2023-05-20T05:21:58;93792.03;;;10.48;96.34
8294;BME280;4185;41.506;24.938;2023-05-20T05:24:26;93780.19;;;10.51;95.35
8294;BME280;4185;41.506;24.938;2023-05-20T05:26:54;93780.44;;;10.73;95.64
8294;BME280;4185;41.506;24.938;2023-05-20T05:29:21;93779.84;;;10.89;95.75
8294;BME280;4185;41.506;24.938;2023-05-20T05:31:48;93770.88;;;11.08;94.60
8294;BME280;4185;41.506;24.938;2023-05-20T05:34:14;93773.72;;;11.25;94.30
8294;BME280;4185;41.506;24.938;2023-05-20T05:36:41;93773.13;;;11.47;93.96
8294;BME280;4185;41.506;24.938;2023-05-20T05:39:08;93783.88;;;11.61;94.81
8294;BME280;4185;41.506;24.938;2023-05-20T05:41:36;93781.25;;;11.72;93.10
8294;BME280;4185;41.506;24.938;2023-05-20T05:44:03;93773.66;;;11.82;93.01
8294;BME280;4185;41.506;24.938;2023-05-20T05:46:30;93768.75;;;11.91;91.91
8294;BME280;4185;41.506;24.938;2023-05-20T05:48:57;93770.78;;;12.02;92.55
8294;BME280;4185;41.506;24.938;2023-05-20T05:51:26;93760.88;;;12.04;91.52
8294;BME280;4185;41.506;24.938;2023-05-20T05:53:53;93764.44;;;12.21;91.48
8294;BME280;4185;41.506;24.938;2023-05-20T05:56:20;93763.25;;;12.34;93.38
8294;BME280;4185;41.506;24.938;2023-05-20T05:58:48;93764.03;;;12.51;91.13
8294;BME280;4185;41.506;24.938;2023-05-20T06:01:15;93759.63;;;12.70;90.21
8294;BME280;4185;41.506;24.938;2023-05-20T06:03:42;93757.94;;;12.83;89.04
8294;BME280;4185;41.506;24.938;2023-05-20T06:06:08;93756.22;;;12.97;89.61
8294;BME280;4185;41.506;24.938;2023-05-20T06:08:35;93747.56;;;13.09;89.71
8294;BME280;4185;41.506;24.938;2023-05-20T06:11:02;93750.31;;;13.20;90.11
8294;BME280;4185;41.506;24.938;2023-05-20T06:13:29;93753.25;;;13.28;88.62
8294;BME280;4185;41.506;24.938;2023-05-20T06:15:57;93748.06;;;13.41;88.41
8294;BME280;4185;41.506;24.938;2023-05-20T06:18:23;93742.09;;;13.54;88.85
8294;BME280;4185;41.506;24.938;2023-05-20T06:20:54;93734.13;;;13.72;87.69
8294;BME280;4185;41.506;24.938;2023-05-20T06:23:21;93727.88;;;13.88;87.05
8294;BME280;4185;41.506;24.938;2023-05-20T06:25:48;93726.09;;;14.02;86.31
8294;BME280;4185;41.506;24.938;2023-05-20T06:28:15;93719.84;;;14.12;85.03
8294;BME280;4185;41.506;24.938;2023-05-20T06:30:42;93710.84;;;14.23;82.53
8294;BME280;4185;41.506;24.938;2023-05-20T06:33:10;93708.63;;;14.32;81.49
8294;BME280;4185;41.506;24.938;2023-05-20T06:35:37;93704.34;;;14.42;83.17
8294;BME280;4185;41.506;24.938;2023-05-20T06:38:03;93711.00;;;14.52;83.09
8294;BME280;4185;41.506;24.938;2023-05-20T06:40:30;93699.25;;;14.63;83.15
8294;BME280;4185;41.506;24.938;2023-05-20T06:42:57;93701.69;;;14.72;82.79
8294;BME280;4185;41.506;24.938;2023-05-20T06:45:24;93690.91;;;14.85;82.18
8294;BME280;4185;41.506;24.938;2023-05-20T06:47:50;93690.31;;;14.98;80.44
8294;BME280;4185;41.506;24.938;2023-05-20T06:50:19;93693.22;;;15.05;82.03
8294;BME280;4185;41.506;24.938;2023-05-20T06:52:46;93694.06;;;15.24;83.05
8294;BME280;4185;41.506;24.938;2023-05-20T06:55:13;93694.94;;;15.38;82.65
8294;BME280;4185;41.506;24.938;2023-05-20T06:57:40;93688.50;;;15.65;78.73
8294;BME280;4185;41.506;24.938;2023-05-20T07:00:08;93686.22;;;15.93;74.42
8294;BME280;4185;41.506;24.938;2023-05-20T07:02:34;93683.41;;;16.17;75.18
8294;BME280;4185;41.506;24.938;2023-05-20T07:05:01;93685.22;;;16.33;70.88
8294;BME280;4185;41.506;24.938;2023-05-20T07:07:29;93692.88;;;16.40;70.12
8294;BME280;4185;41.506;24.938;2023-05-20T07:09:56;93693.84;;;16.61;68.11
8294;BME280;4185;41.506;24.938;2023-05-20T07:12:23;93689.47;;;16.71;67.73
8294;BME280;4185;41.506;24.938;2023-05-20T07:14:50;93692.19;;;16.90;67.36
8294;BME280;4185;41.506;24.938;2023-05-20T07:17:16;93689.06;;;16.99;67.46
8294;BME280;4185;41.506;24.938;2023-05-20T07:19:43;93679.56;;;17.00;67.29
8294;BME280;4185;41.506;24.938;2023-05-20T07:22:10;93676.34;;;17.15;66.51
8294;BME280;4185;41.506;24.938;2023-05-20T07:24:38;93684.53;;;17.01;68.08
8294;BME280;4185;41.506;24.938;2023-05-20T07:27:05;93674.22;;;17.08;66.66
8294;BME280;4185;41.506;24.938;2023-05-20T07:29:33;93675.06;;;17.16;66.71
8294;BME280;4185;41.506;24.938;2023-05-20T07:32:00;93673.59;;;17.15;63.42
8294;BME280;4185;41.506;24.938;2023-05-20T07:34:27;93667.91;;;17.13;65.46
8294;BME280;4185;41.506;24.938;2023-05-20T07:36:54;93678.03;;;17.18;63.03
8294;BME280;4185;41.506;24.938;2023-05-20T07:39:21;93678.75;;;17.37;62.11
8294;BME280;4185;41.506;24.938;2023-05-20T07:41:49;93682.59;;;17.47;62.40
8294;BME280;4185;41.506;24.938;2023-05-20T07:44:16;93683.31;;;17.47;61.64
8294;BME280;4185;41.506;24.938;2023-05-20T07:46:45;93681.09;;;17.46;61.75
8294;BME280;4185;41.506;24.938;2023-05-20T07:49:12;93691.69;;;17.68;62.66
8294;BME280;4185;41.506;24.938;2023-05-20T07:51:39;93692.78;;;17.91;61.58
8294;BME280;4185;41.506;24.938;2023-05-20T07:54:06;93688.53;;;18.03;61.02
8294;BME280;4185;41.506;24.938;2023-05-20T07:56:33;93688.00;;;18.17;59.59
8294;BME280;4185;41.506;24.938;2023-05-20T07:59:01;93696.56;;;18.14;58.24
8294;BME280;4185;41.506;24.938;2023-05-20T08:01:28;93690.22;;;18.19;57.89
8294;BME280;4185;41.506;24.938;2023-05-20T08:03:55;93699.53;;;18.29;57.15
8294;BME280;4185;41.506;24.938;2023-05-20T08:06:22;93697.84;;;18.13;55.59
8294;BME280;4185;41.506;24.938;2023-05-20T08:08:49;93685.66;;;18.21;54.58
8294;BME280;4185;41.506;24.938;2023-05-20T08:11:18;93684.06;;;18.52;55.64
8294;BME280;4185;41.506;24.938;2023-05-20T08:13:45;93683.81;;;18.76;53.06
8294;BME280;4185;41.506;24.938;2023-05-20T08:16:14;93689.59;;;18.86;51.76
8294;BME280;4185;41.506;24.938;2023-05-20T08:18:40;93684.66;;;19.05;50.97
8294;BME280;4185;41.506;24.938;2023-05-20T08:21:08;93679.44;;;19.14;50.33
8294;BME280;4185;41.506;24.938;2023-05-20T08:23:35;93685.22;;;19.24;49.77
8294;BME280;4185;41.506;24.938;2023-05-20T08:26:02;93676.63;;;19.27;48.48
8294;BME280;4185;41.506;24.938;2023-05-20T08:28:29;93683.16;;;19.37;48.75
8294;BME280;4185;41.506;24.938;2023-05-20T08:30:56;93682.06;;;19.40;47.10
8294;BME280;4185;41.506;24.938;2023-05-20T08:33:24;93682.16;;;19.48;48.87
8294;BME280;4185;41.506;24.938;2023-05-20T08:35:51;93680.44;;;19.66;47.68
8294;BME280;4185;41.506;24.938;2023-05-20T08:38:18;93685.44;;;19.47;47.96
8294;BME280;4185;41.506;24.938;2023-05-20T08:40:45;93692.28;;;19.32;48.49
8294;BME280;4185;41.506;24.938;2023-05-20T08:43:12;93689.00;;;19.55;49.38
8294;BME280;4185;41.506;24.938;2023-05-20T08:45:38;93683.59;;;19.70;48.94
8294;BME280;4185;41.506;24.938;2023-05-20T08:48:05;93694.50;;;19.75;48.27
8294;BME280;4185;41.506;24.938;2023-05-20T08:50:34;93701.91;;;19.88;48.72
8294;BME280;4185;41.506;24.938;2023-05-20T08:53:00;93693.06;;;19.82;46.84
8294;BME280;4185;41.506;24.938;2023-05-20T08:55:34;93695.22;;;19.76;48.89
8294;BME280;4185;41.506;24.938;2023-05-20T08:58:03;93694.50;;;19.55;49.15
8294;BME280;4185;41.506;24.938;2023-05-20T09:00:30;93700.81;;;19.63;49.25
8294;BME280;4185;41.506;24.938;2023-05-20T09:02:58;93692.84;;;19.80;48.89
8294;BME280;4185;41.506;24.938;2023-05-20T09:05:25;93687.16;;;19.78;49.27
8294;BME280;4185;41.506;24.938;2023-05-20T09:08:03;93688.56;;;19.71;49.77
8294;BME280;4185;41.506;24.938;2023-05-20T09:10:31;93686.22;;;19.75;49.31
8294;BME280;4185;41.506;24.938;2023-05-20T09:12:59;93687.81;;;19.71;49.80
8294;BME280;4185;41.506;24.938;2023-05-20T09:15:26;93677.09;;;19.60;48.59
8294;BME280;4185;41.506;24.938;2023-05-20T09:17:52;93686.25;;;19.55;48.83
8294;BME280;4185;41.506;24.938;2023-05-20T09:20:20;93684.38;;;19.50;48.84
8294;BME280;4185;41.506;24.938;2023-05-20T09:22:50;93683.69;;;19.57;49.15
8294;BME280;4185;41.506;24.938;2023-05-20T09:25:19;93680.09;;;19.69;48.29
8294;BME280;4185;41.506;24.938;2023-05-20T09:27:47;93683.88;;;19.59;47.92
8294;BME280;4185;41.506;24.938;2023-05-20T09:30:14;93664.13;;;19.47;48.77
8294;BME280;4185;41.506;24.938;2023-05-20T09:32:44;93671.97;;;19.64;47.83
8294;BME280;4185;41.506;24.938;2023-05-20T09:35:12;93672.13;;;19.37;48.28
8294;BME280;4185;41.506;24.938;2023-05-20T09:37:41;93678.03;;;19.41;48.47
8294;BME280;4185;41.506;24.938;2023-05-20T09:40:11;93671.84;;;19.49;48.49
8294;BME280;4185;41.506;24.938;2023-05-20T09:42:42;93658.06;;;19.49;47.43
8294;BME280;4185;41.506;24.938;2023-05-20T09:45:09;93664.69;;;19.74;46.74
8294;BME280;4185;41.506;24.938;2023-05-20T09:47:37;93659.13;;;19.66;47.57
8294;BME280;4185;41.506;24.938;2023-05-20T09:50:06;93651.41;;;19.65;48.36
8294;BME280;4185;41.506;24.938;2023-05-20T09:52:34;93651.56;;;19.38;47.70
8294;BME280;4185;41.506;24.938;2023-05-20T09:55:03;93668.31;;;19.40;48.59
8294;BME280;4185;41.506;24.938;2023-05-20T09:57:32;93674.69;;;19.35;48.61
8294;BME280;4185;41.506;24.938;2023-05-20T10:00:01;93664.84;;;19.06;48.13
8294;BME280;4185;41.506;24.938;2023-05-20T10:02:29;93693.28;;;18.88;49.36
8294;BME280;4185;41.506;24.938;2023-05-20T10:04:58;93710.72;;;18.70;52.01
8294;BME280;4185;41.506;24.938;2023-05-20T10:07:37;93732.13;;;18.51;54.85
8294;BME280;4185;41.506;24.938;2023-05-20T10:10:16;93726.81;;;18.27;61.28
8294;BME280;4185;41.506;24.938;2023-05-20T10:12:52;93712.03;;;18.04;61.32
8294;BME280;4185;41.506;24.938;2023-05-20T10:15:29;93711.69;;;18.07;61.52
8294;BME280;4185;41.506;24.938;2023-05-20T10:18:05;93722.56;;;18.39;63.35
8294;BME280;4185;41.506;24.938;2023-05-20T10:20:44;93708.22;;;18.46;61.84
8294;BME280;4185;41.506;24.938;2023-05-20T10:23:19;93706.59;;;18.51;62.08
8294;BME280;4185;41.506;24.938;2023-05-20T10:25:50;93707.56;;;18.53;61.58
8294;BME280;4185;41.506;24.938;2023-05-20T10:28:27;93706.94;;;18.60;62.28
8294;BME280;4185;41.506;24.938;2023-05-20T10:30:56;93716.34;;;18.52;61.82
8294;BME280;4185;41.506;24.938;2023-05-20T10:33:24;93711.50;;;18.45;61.28
8294;BME280;4185;41.506;24.938;2023-05-20T10:35:52;93705.78;;;18.43;62.61
8294;BME280;4185;41.506;24.938;2023-05-20T10:38:19;93707.34;;;18.38;62.32
8294;BME280;4185;41.506;24.938;2023-05-20T10:40:46;93701.09;;;18.38;63.95
8294;BME280;4185;41.506;24.938;2023-05-20T10:43:14;93691.50;;;18.31;65.57
8294;BME280;4185;41.506;24.938;2023-05-20T10:45:48;93695.59;;;18.64;62.28
8294;BME280;4185;41.506;24.938;2023-05-20T10:48:27;93686.47;;;18.69;61.95
8294;BME280;4185;41.506;24.938;2023-05-20T10:50:55;93678.56;;;18.86;61.50
8294;BME280;4185;41.506;24.938;2023-05-20T10:53:23;93674.97;;;19.11;61.18
8294;BME280;4185;41.506;24.938;2023-05-20T10:55:52;93662.28;;;19.08;61.71
8294;BME280;4185;41.506;24.938;2023-05-20T10:58:21;93674.72;;;19.22;60.34
8294;BME280;4185;41.506;24.938;2023-05-20T11:00:48;93667.56;;;18.86;61.79
8294;BME280;4185;41.506;24.938;2023-05-20T11:03:16;93664.69;;;18.58;62.99
8294;BME280;4185;41.506;24.938;2023-05-20T11:05:46;93672.78;;;18.43;62.86
8294;BME280;4185;41.506;24.938;2023-05-20T11:08:13;93681.66;;;18.22;61.38
8294;BME280;4185;41.506;24.938;2023-05-20T11:10:41;93684.63;;;18.11;61.50
8294;BME280;4185;41.506;24.938;2023-05-20T11:13:11;93688.97;;;18.07;62.98
8294;BME280;4185;41.506;24.938;2023-05-20T11:15:38;93691.72;;;17.94;62.10
8294;BME280;4185;41.506;24.938;2023-05-20T11:18:05;93694.25;;;17.92;63.25
8294;BME280;4185;41.506;24.938;2023-05-20T11:20:32;93691.91;;;17.83;63.46
8294;BME280;4185;41.506;24.938;2023-05-20T11:23:01;93697.00;;;17.92;64.38
8294;BME280;4185;41.506;24.938;2023-05-20T11:25:28;93693.72;;;17.93;63.50
8294;BME280;4185;41.506;24.938;2023-05-20T11:27:55;93696.47;;;17.93;64.32
8294;BME280;4185;41.506;24.938;2023-05-20T11:30:22;93697.00;;;18.31;62.80
8294;BME280;4185;41.506;24.938;2023-05-20T11:32:56;93692.72;;;18.69;62.93
8294;BME280;4185;41.506;24.938;2023-05-20T11:35:24;93686.91;;;18.60;62.44
8294;BME280;4185;41.506;24.938;2023-05-20T11:37:55;93694.25;;;18.44;61.83
8294;BME280;4185;41.506;24.938;2023-05-20T11:40:25;93697.59;;;18.37;61.70
8294;BME280;4185;41.506;24.938;2023-05-20T11:42:56;93701.00;;;18.30;62.80
8294;BME280;4185;41.506;24.938;2023-05-20T11:45:23;93695.50;;;18.30;62.67
8294;BME280;4185;41.506;24.938;2023-05-20T11:48:01;93695.09;;;18.26;59.75
8294;BME280;4185;41.506;24.938;2023-05-20T11:50:33;93691.28;;;18.42;60.37
8294;BME280;4185;41.506;24.938;2023-05-20T11:53:02;93690.75;;;18.57;59.55
8294;BME280;4185;41.506;24.938;2023-05-20T11:55:30;93679.88;;;19.05;54.58
8294;BME280;4185;41.506;24.938;2023-05-20T11:57:57;93664.25;;;19.41;53.30
8294;BME280;4185;41.506;24.938;2023-05-20T12:00:24;93674.31;;;19.18;55.26
8294;BME280;4185;41.506;24.938;2023-05-20T12:02:51;93673.84;;;19.27;55.79
8294;BME280;4185;41.506;24.938;2023-05-20T12:05:18;93665.34;;;19.38;55.46
8294;BME280;4185;41.506;24.938;2023-05-20T12:07:45;93666.28;;;19.41;54.47
8294;BME280;4185;41.506;24.938;2023-05-20T12:10:11;93664.75;;;19.32;54.55
8294;BME280;4185;41.506;24.938;2023-05-20T12:12:40;93657.44;;;19.01;55.59
8294;BME280;4185;41.506;24.938;2023-05-20T12:15:09;93655.03;;;19.18;56.80
8294;BME280;4185;41.506;24.938;2023-05-20T12:17:45;93646.59;;;19.58;55.75
8294;BME280;4185;41.506;24.938;2023-05-20T12:20:15;93639.31;;;19.68;53.27
8294;BME280;4185;41.506;24.938;2023-05-20T12:22:42;93640.16;;;19.83;52.15
8294;BME280;4185;41.506;24.938;2023-05-20T12:25:10;93642.16;;;19.55;52.39
8294;BME280;4185;41.506;24.938;2023-05-20T12:27:37;93633.31;;;19.77;52.16
8294;BME280;4185;41.506;24.938;2023-05-20T12:30:07;93630.91;;;19.73;51.99
8294;BME280;4185;41.506;24.938;2023-05-20T12:32:35;93623.50;;;19.68;53.27
8294;BME280;4185;41.506;24.938;2023-05-20T12:35:03;93625.91;;;19.43;53.17
8294;BME280;4185;41.506;24.938;2023-05-20T12:37:30;93633.22;;;19.41;52.80
8294;BME280;4185;41.506;24.938;2023-05-20T12:39:56;93628.03;;;19.86;52.26
8294;BME280;4185;41.506;24.938;2023-05-20T12:42:23;93622.75;;;20.24;51.92
8294;BME280;4185;41.506;24.938;2023-05-20T12:44:50;93614.34;;;20.37;50.19
8294;BME280;4185;41.506;24.938;2023-05-20T12:47:19;93601.13;;;20.43;49.04
8294;BME280;4185;41.506;24.938;2023-05-20T12:49:46;93599.66;;;20.49;49.68
8294;BME280;4185;41.506;24.938;2023-05-20T12:52:13;93603.63;;;20.92;50.19
8294;BME280;4185;41.506;24.938;2023-05-20T12:54:40;93596.13;;;21.07;47.35
8294;BME280;4185;41.506;24.938;2023-05-20T12:57:06;93594.47;;;21.19;47.39
8294;BME280;4185;41.506;24.938;2023-05-20T12:59:33;93581.03;;;21.23;46.59
8294;BME280;4185;41.506;24.938;2023-05-20T13:02:00;93585.25;;;21.32;47.46
8294;BME280;4185;41.506;24.938;2023-05-20T13:04:28;93576.63;;;21.20;46.51
8294;BME280;4185;41.506;24.938;2023-05-20T13:06:55;93585.63;;;21.06;46.68
8294;BME280;4185;41.506;24.938;2023-05-20T13:09:21;93574.03;;;21.07;46.87
8294;BME280;4185;41.506;24.938;2023-05-20T13:11:48;93574.03;;;21.30;47.82
8294;BME280;4185;41.506;24.938;2023-05-20T13:14:15;93555.63;;;21.17;47.42